サンフランシスコ の空港の天気 - METARとTAF

サンフランシスコ国際空港 ( KSFO / SFO ) - アメリカ カリフォルニア州サンマテオ郡
飛行場実況気象(Metar)
観測時間02/17 14:56 PST (02/17 22:56 UTC)
風向・風速西 11m/s
視程10km以上
天気現象
少しの雲 雲底高度 790m
少しの雲 雲底高度 1100m
全天の4割程度の雲 雲底高度 4570m
気温11.7℃
湿度54%
気圧1016.3hPa
METARKSFO 172256Z 28021KT 10SM FEW026 FEW036 SCT150 12/03 A3001 RMK AO2 PK WND 28029/2243 SLP163 T01170028
過去の天気等 Google飛行場航空写真 Wunderground天気予報

過去48時間のMETAR

飛行場予報(TAF)
発表時間: 2/17 13:01 PST (2/17 21:01 UTC)
予報対象時間: 17日13時 PST ~ 18日16時 PST
風向・風速西 12m/s 瞬間風速 16m/s
視程10km以上
天気現象周辺でしゅう雨
少しの雲 雲底高度 760m
全天の4割程度の雲 雲底高度 1220m
全天の4割程度の雲 雲底高度 3050m
17日19時 PST から
風向・風速西 8m/s
視程10km以上
少しの雲 雲底高度 760m
少しの雲 雲底高度 1070m
全天の4割程度の雲 雲底高度 4570m
17日22時 PST から
風向・風速北西 4m/s
視程10km以上
少しの雲 雲底高度 910m
少しの雲 雲底高度 4570m
18日10時 PST から
風向・風速西北西 7m/s
視程10km以上
少しの雲 雲底高度 910m
少しの雲 雲底高度 4570m
KSFO 172101Z 1721/1824 28023G32KT P6SM VCSH FEW025 SCT040 SCT100
FM180300 28015KT P6SM FEW025 FEW035 SCT150
FM180600 31007KT P6SM FEW030 FEW150
FM181800 30013KT P6SM FEW030 FEW150